Latest Weather Observations for Roxby Downs

IDS60801

Issued at 5:05 pm CDT Saturday 1 November 2014 (issued every 30 minutes, with the page automatically refreshed every 10 minutes)

About weather observations | Map of weather stations | Latest weather observations for SA | Other Formats
Station Details ID: 016096 Name: OLYMPIC DAM AERODROME Lat: -30.48 Lon: 136.88 Height: 98.5 m
Data from the previous 72 hours. | See also: Recent months at Roxby Downs
Date/Time
CDT
Temp
°C
App
Temp
°C
Dew
Point
Rel
Hum
%
Delta-T
°C
Wind Press
QNH
hPa
Press
MSL
hPa
Rain
since 9 am
mm
Dir
 
Spd
km/h
Gust
km/h
Spd
kts
Gust
kts
01/05:00pm 26.0 19.1 2.7 22 11.4 S 28 35 15 19 1016.1 1015.6 0.2
01/04:30pm 25.8 18.0 1.8 21 11.5 S 32 44 17 24 1016.1 1015.6 0.2
01/04:00pm 25.6 17.5 1.0 20 11.6 S 33 43 18 23 1016.0 1015.5 0.2
01/03:41pm 25.4 17.8 0.8 20 11.6 S 30 48 16 26 1016.0 1015.5 0.2
01/03:30pm 26.3 18.4 0.9 19 12.0 S 32 44 17 24 1016.2 1015.7 0.2
01/03:00pm 24.5 16.5 1.4 22 10.9 SSW 33 48 18 26 1016.3 1015.8 0.2
01/02:30pm 24.2 15.7 1.2 22 10.8 S 35 48 19 26 1016.5 1016.0 0.2
01/02:00pm 24.2 16.4 1.8 23 10.6 SSW 32 41 17 22 1016.9 1016.4 0.2
01/01:50pm 24.7 17.7 2.2 23 10.8 S 28 46 15 25 1016.9 1016.4 0.2
01/01:30pm 23.3 16.0 2.2 25 10.0 S 30 43 16 23 1017.1 1016.6 0.2
01/01:00pm 22.5 14.3 2.6 27 9.5 S 35 50 19 27 1017.1 1016.6 0.2
01/12:30pm 21.6 13.2 3.8 31 8.6 S 37 52 20 28 1017.3 1016.8 0.2
01/12:16pm 21.0 13.0 3.7 32 8.3 SSW 35 56 19 30 1017.4 1016.9 0.2
01/12:00pm 20.7 12.7 3.9 33 8.1 SSW 35 52 19 28 1017.6 1017.1 0.2
01/11:30am 20.4 12.4 3.6 33 8.0 S 35 50 19 27 1017.8 1017.3 0.2
01/11:00am 19.6 12.2 4.9 38 7.2 S 33 46 18 25 1017.7 1017.2 0.2
01/10:30am 19.3 11.3 5.7 41 6.7 S 37 52 20 28 1017.4 1016.9 0.2
01/10:00am 18.7 11.4 7.2 47 5.8 S 35 50 19 27 1017.0 1016.7 0.0
01/09:48am 18.1 10.7 6.9 48 5.6 S 35 54 19 29 1016.9 1016.6 0.0
01/09:30am 18.3 10.2 6.8 47 5.8 S 39 54 21 29 1016.6 1016.3 0.0
01/09:02am 17.7 9.3 7.4 51 5.2 S 41 59 22 32 1016.1 1015.8 0.0
01/09:00am 17.7 9.4 7.7 52 5.1 S 41 56 22 30 1016.0 1015.7 -
01/08:30am 17.2 9.0 8.1 55 4.6 S 41 54 22 29 1015.5 1015.3 -
01/08:00am 17.1 11.2 11.2 68 3.2 SSW 33 46 18 25 1014.7 1014.5 -
01/07:30am 16.4 12.1 10.9 70 3.0 SSW 24 33 13 18 1014.2 1014.0 -
01/07:00am 15.8 11.5 10.8 72 2.7 SSW 24 35 13 19 1013.7 1013.4 -
01/06:30am 15.6 10.5 10.6 72 2.7 SSW 28 37 15 20 1013.2 1012.9 -
01/06:00am 15.8 10.8 10.8 72 2.7 SSW 28 39 15 21 1012.4 1012.1 -
01/05:30am 15.9 9.9 10.7 71 2.8 SSW 33 50 18 27 1011.7 1011.4 -
01/05:00am 16.6 8.7 10.9 69 3.1 SSW 43 61 23 33 1010.9 1010.6 -
01/04:49am 17.1 9.2 10.7 66 3.4 SSW 43 65 23 35 1010.5 1010.2 -
01/04:30am 17.9 11.4 12.8 72 2.9 SSW 39 54 21 29 1009.9 1009.6 -
01/04:18am 18.3 12.3 13.4 73 2.8 SSW 37 57 20 31 1009.5 1009.2 -
01/04:00am 18.5 12.7 14.0 75 2.6 SSW 37 54 20 29 1009.3 1009.0 -
01/03:57am 18.6 13.2 13.9 74 2.7 SSW 35 54 19 29 1009.3 1009.0 -
01/03:30am 18.9 14.6 14.4 75 2.6 SSW 30 41 16 22 1008.7 1008.4 -
01/03:00am 19.3 15.2 14.8 75 2.6 SW 30 39 16 21 1008.5 1008.2 -
01/02:30am 19.7 16.0 15.1 75 2.7 SW 28 39 15 21 1008.4 1008.1 -
01/02:00am 20.1 16.8 14.9 72 3.1 SW 26 35 14 19 1008.3 1008.0 -
01/01:30am 20.8 16.3 14.9 69 3.5 SW 32 41 17 22 1008.6 1008.3 1.2
01/01:00am 22.0 18.9 14.4 62 4.5 SW 24 33 13 18 1008.3 1008.0 1.2
01/12:30am 22.3 19.8 15.2 64 4.3 SW 22 28 12 15 1008.1 1007.8 1.2
01/12:00am 22.3 22.6 17.9 76 2.8 SW 13 22 7 12 1007.7 1007.4 1.2
 
Date/Time
CDT
Temp
°C
App
Temp
°C
Dew
Point
Rel
Hum
%
Delta-T
°C
Wind Press
QNH
hPa
Press
MSL
hPa
Rain
since 9 am
mm
Dir
 
Spd
km/h
Gust
km/h
Spd
kts
Gust
kts
31/11:30pm 22.0 23.5 18.8 82 2.0 W 9 11 5 6 1008.3 1008.0 1.2
31/11:00pm 22.2 22.0 18.4 79 2.4 NNW 17 22 9 12 1008.2 1007.9 1.2
31/10:30pm 23.2 20.3 17.0 68 3.8 W 28 41 15 22 1008.6 1008.3 1.0
31/10:00pm 23.5 22.0 16.8 66 4.1 W 20 30 11 16 1006.8 1006.5 1.0
31/09:30pm 24.3 21.2 16.6 62 4.8 W 28 37 15 20 1006.4 1006.1 0.4
31/09:09pm 22.7 19.5 17.2 71 3.4 WSW 30 48 16 26 1005.3 1005.1 0.2
31/09:00pm 25.3 20.8 15.0 53 6.2 SW 32 44 17 24 1005.1 1004.8 0.0
31/08:54pm 25.8 20.9 14.3 49 6.9 SW 33 41 18 22 1005.0 1004.7 0.0
31/08:39pm 25.8 20.3 14.6 50 6.7 SSW 37 50 20 27 1003.2 1002.9 0.0
31/08:30pm 27.2 23.1 12.8 41 8.5 WSW 26 37 14 20 1004.9 1004.6 0.0
31/08:07pm 27.8 22.0 12.6 39 8.9 SSW 35 57 19 31 1003.9 1003.6 0.0
31/08:00pm 27.7 22.5 12.9 40 8.7 SSW 32 43 17 23 1003.2 1002.9 0.0
31/07:30pm 27.1 21.0 14.1 44 7.8 S 39 52 21 28 1001.6 1001.3 0.0
31/07:17pm 26.5 20.0 15.2 49 6.9 SSW 43 57 23 31 1001.7 1001.4 0.0
31/07:00pm 28.3 19.1 14.5 43 8.4 SW 56 91 30 49 1001.9 1001.6 0.0
31/06:52pm 29.8 19.2 13.1 36 9.9 SW 61 80 33 43 1001.0 1000.7 0.0
31/06:48pm 30.8 19.1 12.2 32 11.0 SW 65 80 35 43 1000.8 1000.5 0.0
31/06:47pm 31.3 23.6 12.2 31 11.3 WSW 44 80 24 43 1000.6 1000.3 0.0
31/06:44pm 35.7 29.1 10.0 21 15.0 WSW 35 54 19 29 1001.0 1000.7 0.0
31/06:30pm 37.2 31.8 6.3 15 17.2 NW 24 39 13 21 999.5 999.2 0.0
31/06:15pm 37.2 31.0 6.3 15 17.1 NW 28 46 15 25 999.5 999.2 0.0
31/06:00pm 37.4 32.0 6.4 15 17.3 NW 24 37 13 20 999.6 999.3 0.0
31/05:30pm 37.6 32.6 6.6 15 17.4 NNW 22 32 12 17 999.9 999.6 0.0
31/05:00pm 37.9 31.2 5.8 14 17.7 NW 30 44 16 24 1000.3 1000.0 0.0
31/04:41pm 37.8 31.7 6.7 15 17.4 NW 28 48 15 26 1000.6 1000.3 0.0
31/04:30pm 37.9 33.6 7.7 16 17.2 NW 20 35 11 19 1000.7 1000.4 0.0
31/04:00pm 37.4 32.4 8.2 17 16.7 NW 24 33 13 18 1001.4 1001.1 0.0
31/03:32pm 37.1 31.5 8.8 18 16.3 NW 28 52 15 28 1002.0 1001.7 0.0
31/03:30pm 36.7 31.0 8.5 18 16.2 NW 28 44 15 24 1002.1 1001.8 0.0
31/03:00pm 36.8 31.8 9.4 19 15.9 NW 26 39 14 21 1002.9 1002.6 0.0
31/02:30pm 36.2 30.9 9.7 20 15.4 NW 28 46 15 25 1003.7 1003.4 0.0
31/02:00pm 35.8 29.8 10.1 21 15.0 NNW 32 50 17 27 1004.3 1004.0 0.0
31/01:45pm 36.2 30.5 9.7 20 15.4 NNW 30 48 16 26 1004.5 1004.2 0.0
31/01:30pm 35.9 31.1 10.2 21 15.1 WNW 26 35 14 19 1004.6 1004.3 0.0
31/01:10pm 35.5 30.2 9.8 21 14.9 NNW 28 41 15 22 1004.9 1004.6 0.0
31/01:00pm 34.9 31.7 10.0 22 14.4 NNW 17 22 9 12 1005.0 1004.7 0.0
31/12:30pm 33.7 29.7 10.3 24 13.6 NW 22 32 12 17 1005.7 1005.4 0.0
31/12:00pm 33.9 29.4 9.9 23 13.9 WNW 24 39 13 21 1006.2 1005.9 0.0
31/11:30am 32.5 29.1 10.5 26 12.8 WNW 19 26 10 14 1006.7 1006.4 0.0
31/11:00am 32.8 29.3 10.8 26 12.8 NW 20 26 11 14 1007.0 1006.7 0.0
31/10:30am 31.7 27.9 11.0 28 12.1 NW 22 33 12 18 1007.2 1006.9 0.0
31/10:00am 31.7 28.2 11.0 28 12.0 NW 20 28 11 15 1007.1 1006.8 0.0
31/09:30am 30.8 29.0 10.7 29 11.6 NW 11 15 6 8 1007.0 1006.7 0.0
31/09:00am 29.3 27.5 10.9 32 10.6 WNW 11 17 6 9 1007.0 1006.7 0.0
31/08:30am 27.9 26.4 10.6 34 9.8 WNW 9 13 5 7 1007.0 1006.7 0.0
31/08:00am 26.8 24.9 9.2 33 9.7 NNW 9 13 5 7 1007.1 1006.8 0.0
31/07:30am 26.0 24.0 8.5 33 9.5 NNW 9 13 5 7 1007.2 1006.9 0.0
31/07:00am 24.7 21.7 6.0 30 9.6 NW 11 15 6 8 1007.2 1006.9 0.0
31/06:30am 25.0 20.9 4.2 26 10.4 WNW 15 19 8 10 1007.3 1007.0 0.0
31/06:00am 26.0 20.8 3.3 23 11.3 NW 20 30 11 16 1007.2 1006.9 0.0
31/05:30am 26.1 21.9 -0.8 17 12.4 NNW 11 15 6 8 1006.8 1006.5 0.0
31/05:00am 26.8 21.3 -2.0 15 13.0 N 17 20 9 11 1006.7 1006.4 0.0
31/04:30am 27.1 21.7 -1.7 15 13.2 NNW 17 22 9 12 1007.0 1006.7 0.0
31/04:00am 27.7 22.6 -2.2 14 13.6 N 15 20 8 11 1007.0 1006.7 0.0
31/03:30am 27.2 22.8 -2.6 14 13.4 N 11 15 6 8 1006.9 1006.6 0.0
31/03:00am 28.7 23.5 -2.4 13 14.2 N 15 20 8 11 1007.4 1007.1 0.0
31/02:30am 28.6 23.4 -2.5 13 14.2 N 15 20 8 11 1007.6 1007.3 0.0
31/02:00am 28.9 23.8 -2.3 13 14.3 N 15 20 8 11 1008.1 1007.8 0.0
31/01:30am 29.6 24.0 -2.8 12 14.8 N 17 24 9 13 1008.5 1008.2 0.0
31/01:00am 29.4 23.8 -2.9 12 14.7 N 17 24 9 13 1008.8 1008.5 0.0
31/12:30am 28.6 23.4 -2.5 13 14.2 N 15 17 8 9 1009.1 1008.8 0.0
31/12:00am 28.8 24.0 -2.3 13 14.2 N 13 19 7 10 1009.4 1009.1 0.0
 
Date/Time
CDT
Temp
°C
App
Temp
°C
Dew
Point
Rel
Hum
%
Delta-T
°C
Wind Press
QNH
hPa
Press
MSL
hPa
Rain
since 9 am
mm
Dir
 
Spd
km/h
Gust
km/h
Spd
kts
Gust
kts
30/11:30pm 28.5 24.1 -2.6 13 14.1 N 11 13 6 7 1009.9 1009.6 0.0
30/11:00pm 29.5 24.3 -2.9 12 14.7 N 15 19 8 10 1010.0 1009.7 0.0
30/10:30pm 29.4 25.1 -1.9 13 14.5 N 11 13 6 7 1010.2 1009.9 0.0
30/10:00pm 29.2 25.1 -3.1 12 14.6 N 9 11 5 6 1010.0 1009.7 0.0
30/09:30pm 29.5 25.4 -2.9 12 14.7 NE 9 13 5 7 1009.8 1009.5 0.0
30/09:00pm 30.4 26.8 -3.3 11 15.3 NNE 6 7 3 4 1009.6 1009.3 0.0
30/08:30pm 31.8 27.6 -3.5 10 16.2 N 9 11 5 6 1009.6 1009.3 0.0
30/08:00pm 31.3 28.8 -3.9 10 15.9 CALM 0 0 0 0 1009.2 1008.9 0.0
30/07:30pm 32.7 30.3 -2.9 10 16.6 CALM 0 0 0 0 1009.2 1008.9 0.0
30/07:00pm 33.9 30.1 -3.4 9 17.4 NW 7 11 4 6 1009.2 1008.9 0.0
30/06:30pm 34.5 30.4 -2.9 9 17.7 W 9 15 5 8 1009.4 1009.1 0.0
30/06:00pm 34.9 30.1 -2.6 9 17.8 WNW 13 19 7 10 1009.5 1009.2 0.0
30/05:30pm 35.2 29.7 -2.4 9 18.0 W 17 24 9 13 1009.6 1009.3 0.0
30/05:00pm 35.2 29.7 -2.4 9 18.0 WNW 17 30 9 16 1009.7 1009.4 0.0
30/04:30pm 36.4 30.8 -3.1 8 18.8 W 17 24 9 13 1009.9 1009.6 0.0
30/04:00pm 35.9 31.6 -1.9 9 18.3 WSW 11 20 6 11 1010.2 1009.9 0.0
30/03:30pm 35.4 30.6 -2.3 9 18.1 WSW 13 20 7 11 1010.7 1010.4 0.0
30/03:00pm 34.7 30.3 -2.8 9 17.7 WNW 11 20 6 11 1011.0 1010.7 0.0
30/02:30pm 35.1 31.1 -2.5 9 17.9 ESE 9 15 5 8 1011.5 1011.2 0.0
30/02:00pm 35.1 30.3 -2.5 9 17.9 N 13 20 7 11 1012.0 1011.7 0.0
30/01:30pm 34.2 30.1 -3.2 9 17.5 N 9 17 5 9 1012.4 1012.1 0.0
30/01:00pm 34.0 29.1 -3.3 9 17.4 N 13 22 7 12 1012.8 1012.5 0.0
30/12:30pm 33.4 29.0 -2.3 10 16.9 N 11 24 6 13 1013.4 1013.1 0.0
30/12:00pm 33.0 28.7 -1.4 11 16.4 N 11 22 6 12 1014.0 1013.8 0.0
30/11:30am 31.6 26.8 -2.4 11 15.8 NE 13 22 7 12 1014.3 1014.1 0.0
30/11:00am 31.3 27.2 -0.4 13 15.2 NE 11 19 6 10 1014.5 1014.3 0.0
30/10:30am 29.5 25.6 1.1 16 13.8 ENE 11 15 6 8 1014.7 1014.5 0.0
30/10:00am 29.8 25.9 1.3 16 14.0 ENE 11 17 6 9 1014.8 1014.6 0.0
30/09:30am 27.9 24.5 4.2 22 12.0 E 11 15 6 8 1015.0 1014.8 0.0
30/09:00am 26.7 23.6 5.6 26 10.9 ESE 11 15 6 8 1015.1 1014.9 0.0
30/08:30am 24.3 21.3 6.1 31 9.4 ESE 11 15 6 8 1015.0 1014.8 0.0
30/08:00am 20.8 19.6 4.4 34 8.0 CALM 0 0 0 0 1014.9 1014.7 0.0
30/07:30am 19.0 17.3 2.0 32 7.8 CALM 0 6 0 3 1014.5 1014.3 0.0
30/07:00am 19.1 15.7 1.6 31 8.0 S 9 11 5 6 1014.5 1014.3 0.0
30/06:30am 18.8 15.7 1.3 31 7.9 SSE 7 9 4 5 1013.7 1013.4 0.0
30/06:00am 19.1 15.9 0.7 29 8.2 ESE 7 9 4 5 1013.6 1013.3 0.0
30/05:30am 19.3 15.1 -0.7 26 8.7 SSE 11 13 6 7 1013.7 1013.4 0.0
30/05:00am 19.8 16.2 0.3 27 8.7 SSE 9 11 5 6 1013.5 1013.2 0.0
30/04:30am 20.7 17.2 -1.2 23 9.5 S 7 9 4 5 1013.6 1013.3 0.0
30/04:00am 21.0 17.1 -1.5 22 9.8 S 9 11 5 6 1013.6 1013.3 0.0
30/03:30am 21.1 17.3 -0.8 23 9.7 SSE 9 11 5 6 1013.3 1013.0 0.0
30/03:00am 22.5 18.3 -0.9 21 10.4 E 11 17 6 9 1013.3 1013.0 0.0
30/02:30am 21.6 17.4 -1.0 22 10.0 E 11 13 6 7 1013.6 1013.3 0.0
30/02:00am 19.5 15.7 -1.0 25 8.9 E 9 15 5 8 1013.9 1013.6 0.0
30/01:30am 17.4 13.3 -3.4 24 8.4 SSE 9 9 5 5 1014.4 1014.2 0.0
30/01:00am 18.6 14.6 -5.4 19 9.4 SE 7 9 4 5 1014.7 1014.5 0.0
30/12:30am 20.2 16.7 -2.8 21 9.7 SSE 6 9 3 5 1015.0 1014.8 0.0
30/12:00am 21.9 17.9 -2.0 20 10.4 SSE 9 9 5 5 1015.3 1015.1 0.0
 
Date/Time
CDT
Temp
°C
App
Temp
°C
Dew
Point
Rel
Hum
%
Delta-T
°C
Wind Press
QNH
hPa
Press
MSL
hPa
Rain
since 9 am
mm
Dir
 
Spd
km/h
Gust
km/h
Spd
kts
Gust
kts
29/11:30pm 21.3 17.3 -2.5 20 10.2 SSE 9 13 5 7 1015.2 1015.0 0.0
29/11:00pm 24.1 20.2 -1.7 18 11.5 S 9 11 5 6 1015.4 1015.2 0.0
29/10:30pm 25.5 21.2 -1.3 17 12.1 S 11 15 6 8 1015.5 1015.3 0.0
29/10:00pm 21.4 17.2 -8.1 13 11.3 S 7 7 4 4 1015.4 1015.2 0.0
29/09:30pm 22.9 18.7 -8.0 12 12.0 S 7 9 4 5 1015.0 1014.8 0.0
29/09:00pm 24.5 21.6 -7.9 11 12.8 CALM 0 0 0 0 1014.8 1014.6 0.0
29/08:30pm 27.2 24.4 -7.0 10 14.2 CALM 0 0 0 0 1014.5 1014.3 0.0
29/08:00pm 29.7 26.9 -6.5 9 15.5 CALM 0 0 0 0 1014.2 1014.0 0.0
29/07:30pm 31.6 27.8 -5.1 9 16.3 WSW 6 7 3 4 1014.0 1013.8 0.0
29/07:00pm 32.1 28.8 -4.7 9 16.5 SW 4 9 2 5 1013.9 1013.6 0.0
29/06:30pm 32.1 28.2 -6.3 8 16.8 NNE 6 7 3 4 1013.9 1013.6 0.0
29/06:00pm 32.5 28.5 -6.0 8 17.0 NNE 7 11 4 6 1013.9 1013.6 0.0
29/05:30pm 33.6 28.1 -5.2 8 17.5 WNW 15 20 8 11 1013.9 1013.6 0.0

Other Formats:

Comma delimited format used in spreadsheet applications
http://www.bom.gov.au/fwo/IDS60801/IDS60801.95658.axf

JavaScript Object Notation format (JSON) in row-major order
http://www.bom.gov.au/fwo/IDS60801/IDS60801.95658.json